createdAt,value
2022-11-18T00:01:51.028Z,7.5
2022-11-18T00:03:51.705Z,7.5
2022-11-18T00:05:53.937Z,7.4
2022-11-18T00:07:50.003Z,7.5
2022-11-18T00:09:49.690Z,7.4
2022-11-18T00:11:59.031Z,7.5
2022-11-18T00:13:58.744Z,7.4
2022-11-18T00:15:48.675Z,7.3
2022-11-18T00:17:48.514Z,7.3
2022-11-18T00:19:48.329Z,7.3
2022-11-18T00:21:48.413Z,7.3
2022-11-18T00:23:48.423Z,7.3
2022-11-18T00:25:46.937Z,7.4
2022-11-18T00:27:46.806Z,7.4
2022-11-18T00:29:46.259Z,7.6
2022-11-18T00:31:46.787Z,7.6
2022-11-18T00:33:45.706Z,7.6
2022-11-18T00:35:53.272Z,7.6
2022-11-18T00:37:44.960Z,7.6
2022-11-18T00:39:44.695Z,7.7
2022-11-18T00:41:54.654Z,7.7
2022-11-18T00:43:43.947Z,7.7
2022-11-18T00:45:43.999Z,7.7
2022-11-18T00:49:43.576Z,7.7
2022-11-18T00:51:42.768Z,7.7
2022-11-18T00:53:43.219Z,7.7
2022-11-18T00:57:41.756Z,7.7
2022-11-18T00:59:41.244Z,7.7
2022-11-18T01:01:40.973Z,7.8
2022-11-18T01:03:40.569Z,7.8
2022-11-18T01:09:39.958Z,7.7
2022-11-18T01:11:49.294Z,7.8
2022-11-18T01:13:39.561Z,7.8
2022-11-18T01:15:39.454Z,7.8
2022-11-18T01:19:38.403Z,7.8
2022-11-18T01:21:37.729Z,7.8
2022-11-18T01:23:37.389Z,7.8
2022-11-18T01:25:39.139Z,7.8
2022-11-18T01:27:36.726Z,7.8
2022-11-18T01:29:36.316Z,7.8
2022-11-18T01:31:45.679Z,7.8
2022-11-18T01:33:35.964Z,7.8
2022-11-18T01:35:36.062Z,7.8
2022-11-18T01:37:35.365Z,7.8
2022-11-18T01:39:35.044Z,7.7
2022-11-18T01:41:34.711Z,7.8
2022-11-18T01:43:47.337Z,7.8
2022-11-18T01:47:37.980Z,7.8
2022-11-18T01:49:33.133Z,7.8
2022-11-18T01:51:37.370Z,7.7
2022-11-18T01:57:32.339Z,7.7
2022-11-18T01:59:35.178Z,7.8
2022-11-18T02:01:31.907Z,7.8
2022-11-18T02:03:31.517Z,7.8
2022-11-18T02:05:32.976Z,7.8
2022-11-18T02:07:31.894Z,7.8
2022-11-18T02:09:30.226Z,7.8
2022-11-18T02:11:40.409Z,7.7
2022-11-18T02:13:31.399Z,7.6
2022-11-18T02:15:43.926Z,7.5
2022-11-18T02:17:38.714Z,7.5
2022-11-18T02:19:48.128Z,7.4
2022-11-18T02:21:42.037Z,7.4
2022-11-18T02:23:47.330Z,7.4
2022-11-18T02:25:35.896Z,7.4
2022-11-18T02:29:29.937Z,7.4
2022-11-18T02:31:33.210Z,7.3
2022-11-18T02:33:31.942Z,7.3
2022-11-18T02:35:29.080Z,7.2
2022-11-18T02:37:33.484Z,7.2
2022-11-18T02:39:31.786Z,7.3
2022-11-18T02:41:28.196Z,7.2
2022-11-18T02:43:28.025Z,7.2
2022-11-18T02:49:27.991Z,7.0
2022-11-18T02:51:26.260Z,6.9
2022-11-18T02:53:24.657Z,6.9
2022-11-18T02:55:24.282Z,6.9
2022-11-18T02:57:24.533Z,6.9
2022-11-18T02:59:21.666Z,6.8
2022-11-18T03:01:27.843Z,6.8
2022-11-18T03:03:25.851Z,6.8
2022-11-18T03:05:28.897Z,6.8
2022-11-18T03:07:26.582Z,6.7
2022-11-18T03:09:26.840Z,6.8
2022-11-18T03:11:22.409Z,6.7
2022-11-18T03:13:25.990Z,6.7
2022-11-18T03:15:28.010Z,6.6
2022-11-18T03:17:24.187Z,6.6
2022-11-18T03:25:21.061Z,6.5
2022-11-18T03:27:30.191Z,6.4
2022-11-18T03:31:22.334Z,6.4
2022-11-18T03:33:23.593Z,6.3
2022-11-18T03:35:20.233Z,6.2
2022-11-18T03:37:19.302Z,6.2
2022-11-18T03:39:19.202Z,6.1
2022-11-18T03:43:18.930Z,6.2
2022-11-18T03:45:18.594Z,6.2
2022-11-18T03:47:18.609Z,6.1
2022-11-18T03:49:19.172Z,6.1
2022-11-18T03:51:17.759Z,6.1
2022-11-18T03:53:14.937Z,6.1
2022-11-18T03:55:17.682Z,6.0
2022-11-18T03:57:17.629Z,6.0
2022-11-18T03:59:17.805Z,6.0
2022-11-18T04:01:15.842Z,6.0
2022-11-18T04:03:12.115Z,6.0
2022-11-18T04:05:12.726Z,5.9
2022-11-18T04:07:19.461Z,5.8
2022-11-18T04:09:16.581Z,5.9
2022-11-18T04:15:09.287Z,5.9
2022-11-18T04:19:08.828Z,5.8
2022-11-18T04:23:08.147Z,5.9
2022-11-18T04:25:07.814Z,5.8
2022-11-18T04:27:07.926Z,5.8
2022-11-18T04:29:06.391Z,5.8
2022-11-18T04:31:05.943Z,5.8
2022-11-18T04:33:05.937Z,5.8
2022-11-18T04:35:05.589Z,5.8
2022-11-18T04:37:05.046Z,5.8
2022-11-18T04:41:04.515Z,5.8
2022-11-18T04:43:03.882Z,5.8
2022-11-18T04:45:04.991Z,5.8
2022-11-18T04:47:05.376Z,5.8
2022-11-18T04:49:02.966Z,5.7
2022-11-18T04:51:02.602Z,5.7
2022-11-18T04:53:01.971Z,5.7
2022-11-18T04:57:01.286Z,5.8
2022-11-18T04:59:02.304Z,5.8
2022-11-18T05:01:00.521Z,5.8
2022-11-18T05:03:00.131Z,5.8
2022-11-18T05:04:59.848Z,5.8
2022-11-18T05:07:01.504Z,5.7
2022-11-18T05:09:00.605Z,5.7
2022-11-18T05:11:08.608Z,5.7
2022-11-18T05:12:58.262Z,5.7
2022-11-18T05:14:58.271Z,5.7
2022-11-18T05:18:57.261Z,5.7
2022-11-18T05:20:56.778Z,5.7
2022-11-18T05:22:56.507Z,5.6
2022-11-18T05:24:56.061Z,5.6
2022-11-18T05:26:55.875Z,5.6
2022-11-18T05:34:54.730Z,5.6
2022-11-18T05:38:53.441Z,5.5
2022-11-18T05:40:53.022Z,5.5
2022-11-18T05:44:57.852Z,5.4
2022-11-18T05:46:51.976Z,5.5
2022-11-18T05:48:52.402Z,5.5
2022-11-18T05:50:53.153Z,5.5
2022-11-18T05:52:50.896Z,5.4
2022-11-18T05:54:50.880Z,5.4
2022-11-18T05:56:50.479Z,5.5
2022-11-18T05:58:50.208Z,5.5
2022-11-18T06:00:53.530Z,5.6
2022-11-18T06:02:53.353Z,5.6
2022-11-18T06:04:52.402Z,5.5
2022-11-18T06:06:53.951Z,5.4
2022-11-18T06:08:52.328Z,5.4
2022-11-18T06:12:51.955Z,5.5
2022-11-18T06:14:52.500Z,5.5
2022-11-18T06:16:51.274Z,5.5
2022-11-18T06:20:46.950Z,5.4
2022-11-18T06:22:46.806Z,5.4
2022-11-18T06:24:45.289Z,5.4
2022-11-18T06:26:45.975Z,5.4
2022-11-18T06:28:47.449Z,5.4
2022-11-18T06:30:43.881Z,5.5
2022-11-18T06:32:43.297Z,5.3
2022-11-18T06:34:43.063Z,5.4
2022-11-18T06:36:42.611Z,5.4
2022-11-18T06:38:42.151Z,5.4
2022-11-18T06:40:43.830Z,5.3
2022-11-18T06:42:51.853Z,5.4
2022-11-18T06:44:41.599Z,5.4
2022-11-18T06:46:50.872Z,5.4
2022-11-18T06:48:40.582Z,5.4
2022-11-18T06:50:39.928Z,5.3
2022-11-18T06:52:39.780Z,5.4
2022-11-18T06:54:39.217Z,5.3
2022-11-18T06:56:38.898Z,5.4
2022-11-18T06:58:39.092Z,5.4
2022-11-18T07:00:38.208Z,5.4
2022-11-18T07:04:38.851Z,5.4
2022-11-18T07:06:37.126Z,5.4
2022-11-18T07:08:38.115Z,5.4
2022-11-18T07:10:36.556Z,5.3
2022-11-18T07:12:36.018Z,5.4
2022-11-18T07:14:35.432Z,5.4
2022-11-18T07:16:36.400Z,5.4
2022-11-18T07:18:36.719Z,5.5
2022-11-18T07:20:34.425Z,5.5
2022-11-18T07:22:34.033Z,5.4
2022-11-18T07:24:33.751Z,5.4
2022-11-18T07:26:33.853Z,5.4
2022-11-18T07:28:32.915Z,5.5
2022-11-18T07:30:32.355Z,5.5
2022-11-18T07:32:32.762Z,5.6
2022-11-18T07:34:32.120Z,5.7
2022-11-18T07:36:35.686Z,5.7
2022-11-18T07:46:32.558Z,6.1
2022-11-18T07:48:28.894Z,6.2
2022-11-18T07:50:28.520Z,6.3
2022-11-18T07:52:28.198Z,6.4
2022-11-18T07:54:28.264Z,6.4
2022-11-18T07:56:27.867Z,6.5
2022-11-18T07:58:28.113Z,6.5
2022-11-18T08:00:27.612Z,6.6
2022-11-18T08:02:26.461Z,6.6
2022-11-18T08:04:25.930Z,6.7
2022-11-18T08:06:25.549Z,6.7
2022-11-18T08:08:25.359Z,6.7
2022-11-18T08:12:24.564Z,6.8
2022-11-18T08:14:24.098Z,6.9
2022-11-18T08:16:25.156Z,6.9
2022-11-18T08:18:24.011Z,6.9
2022-11-18T08:20:26.319Z,7.0
2022-11-18T08:22:23.057Z,7.0
2022-11-18T08:24:22.886Z,7.1
2022-11-18T08:26:23.059Z,7.1
2022-11-18T08:28:21.806Z,7.2
2022-11-18T08:34:20.605Z,7.3
2022-11-18T08:36:22.366Z,7.3
2022-11-18T08:38:19.828Z,7.4
2022-11-18T08:40:19.812Z,7.4
2022-11-18T08:42:24.360Z,7.4
2022-11-18T08:44:18.793Z,7.4
2022-11-18T08:46:19.118Z,7.5
2022-11-18T08:48:18.650Z,7.5
2022-11-18T08:50:18.299Z,7.5
2022-11-18T08:52:17.651Z,7.6
2022-11-18T08:54:17.284Z,7.5
2022-11-18T08:56:18.791Z,7.6
2022-11-18T08:58:16.437Z,7.6
2022-11-18T09:00:17.226Z,7.7
2022-11-18T09:02:18.719Z,7.7
2022-11-18T09:04:15.484Z,7.7
2022-11-18T09:06:17.340Z,7.7
2022-11-18T09:08:15.108Z,7.8
2022-11-18T09:10:14.883Z,7.8
2022-11-18T09:12:16.520Z,7.8
2022-11-18T09:15:11.765Z,7.8
2022-11-18T09:16:13.927Z,7.9
2022-11-18T09:18:13.377Z,7.9
2022-11-18T09:20:12.712Z,7.9
2022-11-18T09:24:12.079Z,7.9
2022-11-18T09:26:14.919Z,7.9
2022-11-18T09:30:11.341Z,8.0
2022-11-18T09:32:10.716Z,8.0
2022-11-18T09:36:12.714Z,8.1
2022-11-18T09:38:09.944Z,8.1
2022-11-18T09:40:14.938Z,8.1
2022-11-18T09:42:26.133Z,8.2
2022-11-18T09:44:19.399Z,8.2
2022-11-18T09:46:21.243Z,8.2
2022-11-18T09:48:15.376Z,8.3
2022-11-18T09:50:41.668Z,8.3
2022-11-18T09:52:16.038Z,8.3
2022-11-18T09:54:11.459Z,8.3
2022-11-18T09:56:13.163Z,8.3
2022-11-18T09:58:07.276Z,8.4
2022-11-18T10:00:14.568Z,8.4
2022-11-18T10:02:25.492Z,8.4
2022-11-18T10:04:05.348Z,8.5
2022-11-18T10:06:23.151Z,8.5
2022-11-18T10:08:19.957Z,8.6
2022-11-18T10:10:14.748Z,8.6
2022-11-18T10:14:18.778Z,8.6
2022-11-18T10:16:15.316Z,8.6
2022-11-18T10:18:44.867Z,8.7
2022-11-18T10:20:17.596Z,8.8
2022-11-18T10:22:22.846Z,8.7
2022-11-18T10:24:10.179Z,8.8
2022-11-18T10:28:14.844Z,8.8
2022-11-18T10:30:01.911Z,8.9
2022-11-18T10:32:05.526Z,8.8
2022-11-18T10:34:01.195Z,8.9
2022-11-18T10:36:17.742Z,9.0
2022-11-18T10:38:08.341Z,8.9
2022-11-18T10:40:02.155Z,9.0
2022-11-18T10:42:02.527Z,9.0
2022-11-18T10:43:59.107Z,9.0
2022-11-18T10:46:15.637Z,9.1
2022-11-18T10:48:01.186Z,9.1
2022-11-18T10:50:00.846Z,9.1
2022-11-18T10:52:08.359Z,9.1
2022-11-18T10:54:07.309Z,9.2
2022-11-18T10:55:59.101Z,9.2
2022-11-18T10:58:01.993Z,9.2
2022-11-18T10:59:57.411Z,9.2
2022-11-18T11:01:58.692Z,9.2
2022-11-18T11:03:59.377Z,9.3
2022-11-18T11:06:14.820Z,9.3
2022-11-18T11:08:28.944Z,9.2
2022-11-18T11:10:00.356Z,9.3
2022-11-18T11:11:58.281Z,9.3
2022-11-18T11:14:01.809Z,9.4
2022-11-18T11:15:57.608Z,9.4
2022-11-18T11:18:08.171Z,9.4
2022-11-18T11:20:03.321Z,9.4
2022-11-18T11:21:53.218Z,9.4
2022-11-18T11:23:53.154Z,9.4
2022-11-18T11:30:03.169Z,9.4
2022-11-18T11:32:00.939Z,9.4
2022-11-18T11:33:58.816Z,9.4
2022-11-18T11:36:01.539Z,9.5
2022-11-18T11:37:54.914Z,9.4
2022-11-18T11:40:04.915Z,9.4
2022-11-18T11:44:09.414Z,9.4
2022-11-18T11:46:04.674Z,9.5
2022-11-18T11:48:06.925Z,9.5
2022-11-18T11:49:57.083Z,9.4
2022-11-18T11:51:53.134Z,9.4
2022-11-18T11:54:00.005Z,9.4
2022-11-18T11:56:02.523Z,9.5
2022-11-18T11:58:03.429Z,9.4
2022-11-18T12:00:00.021Z,9.4
2022-11-18T12:01:57.961Z,9.4
2022-11-18T12:03:52.513Z,9.4
2022-11-18T12:05:46.627Z,9.5
2022-11-18T12:07:52.834Z,9.5
2022-11-18T12:10:00.345Z,9.5
2022-11-18T12:11:50.818Z,9.5
2022-11-18T12:13:52.939Z,9.6
2022-11-18T12:15:56.472Z,9.6
2022-11-18T12:17:52.869Z,9.5
2022-11-18T12:19:44.174Z,9.5
2022-11-18T12:21:53.023Z,9.4
2022-11-18T12:24:03.376Z,9.5
2022-11-18T12:25:52.959Z,9.5
2022-11-18T12:27:58.973Z,9.5
2022-11-18T12:29:54.521Z,9.5
2022-11-18T12:31:42.946Z,9.5
2022-11-18T12:33:44.558Z,9.4
2022-11-18T12:35:46.708Z,9.4
2022-11-18T12:37:54.155Z,9.4
2022-11-18T12:44:00.541Z,9.4
2022-11-18T12:45:52.752Z,9.4
2022-11-18T12:47:57.220Z,9.4
2022-11-18T12:49:59.269Z,9.5
2022-11-18T12:51:40.983Z,9.4
2022-11-18T12:53:41.212Z,9.4
2022-11-18T12:55:38.624Z,9.5
2022-11-18T12:57:41.481Z,9.5
2022-11-18T12:59:38.532Z,9.5
2022-11-18T13:01:38.180Z,9.5
2022-11-18T13:05:37.867Z,9.4
2022-11-18T13:07:53.710Z,9.5
2022-11-18T13:09:36.451Z,9.5
2022-11-18T13:11:45.642Z,9.5
2022-11-18T13:13:36.049Z,9.5
2022-11-18T13:15:50.953Z,9.4
2022-11-18T13:17:47.538Z,9.5
2022-11-18T13:19:35.502Z,9.5
2022-11-18T13:21:45.162Z,9.5
2022-11-18T13:23:44.158Z,9.6
2022-11-18T13:25:34.625Z,9.5
2022-11-18T13:27:43.940Z,9.5
2022-11-18T13:29:42.844Z,9.5
2022-11-18T13:31:41.941Z,9.5
2022-11-18T13:33:35.430Z,9.5
2022-11-18T13:35:32.532Z,9.4
2022-11-18T13:37:33.512Z,9.4
2022-11-18T13:39:32.415Z,9.4
2022-11-18T13:41:33.690Z,9.4
2022-11-18T13:43:32.544Z,9.3
2022-11-18T13:45:33.692Z,9.3
2022-11-18T13:47:38.780Z,9.3
2022-11-18T13:49:45.003Z,9.3
2022-11-18T13:51:30.557Z,9.3
2022-11-18T13:53:33.387Z,9.3
2022-11-18T13:55:33.520Z,9.3
2022-11-18T13:57:29.914Z,9.2
2022-11-18T13:59:29.910Z,9.3
2022-11-18T14:01:30.807Z,9.3
2022-11-18T14:03:32.359Z,9.3
2022-11-18T14:05:29.784Z,9.4
2022-11-18T14:07:30.964Z,9.2
2022-11-18T14:11:34.648Z,9.2
2022-11-18T14:15:39.090Z,9.2
2022-11-18T14:17:27.291Z,9.2
2022-11-18T14:23:29.527Z,9.2
2022-11-18T14:25:28.392Z,9.2
2022-11-18T14:27:36.003Z,9.1
2022-11-18T14:29:25.184Z,9.1
2022-11-18T14:31:27.043Z,9.1
2022-11-18T14:33:25.749Z,9.0
2022-11-18T14:35:25.008Z,9.0
2022-11-18T14:37:24.157Z,9.0
2022-11-18T14:41:33.060Z,8.9
2022-11-18T14:43:23.373Z,8.9
2022-11-18T14:45:26.265Z,8.9
2022-11-18T14:47:26.639Z,8.9
2022-11-18T14:49:24.085Z,8.9
2022-11-18T14:53:21.590Z,8.8
2022-11-18T14:55:21.409Z,8.8
2022-11-18T14:57:20.919Z,8.8
2022-11-18T14:59:21.563Z,8.8
2022-11-18T15:01:22.894Z,8.7
2022-11-18T15:03:20.774Z,8.7
2022-11-18T15:05:20.407Z,8.7
2022-11-18T15:07:23.743Z,8.8
2022-11-18T15:09:19.317Z,8.8
2022-11-18T15:11:19.541Z,8.7
2022-11-18T15:13:18.648Z,8.8
2022-11-18T15:15:18.326Z,8.7
2022-11-18T15:17:20.450Z,8.7
2022-11-18T15:19:17.727Z,8.7
2022-11-18T15:21:18.305Z,8.7
2022-11-18T15:23:17.186Z,8.6
2022-11-18T15:25:17.144Z,8.7
2022-11-18T15:27:16.654Z,8.8
2022-11-18T15:29:18.812Z,8.8
2022-11-18T15:31:17.458Z,8.7
2022-11-18T15:33:16.272Z,8.7
2022-11-18T15:35:15.977Z,8.7
2022-11-18T15:37:15.772Z,8.7
2022-11-18T15:39:15.243Z,8.7
2022-11-18T15:41:17.074Z,8.6
2022-11-18T15:43:14.304Z,8.6
2022-11-18T15:45:14.125Z,8.6
2022-11-18T15:47:13.754Z,8.6
2022-11-18T15:51:14.046Z,8.7
2022-11-18T15:53:12.905Z,8.7
2022-11-18T15:55:12.570Z,8.6
2022-11-18T15:59:13.663Z,8.6
2022-11-18T16:01:12.017Z,8.6
2022-11-18T16:07:11.840Z,8.6
2022-11-18T16:09:12.053Z,8.5
2022-11-18T16:11:21.779Z,8.6
2022-11-18T16:13:10.114Z,8.6
2022-11-18T16:15:19.544Z,8.6
2022-11-18T16:17:09.420Z,8.6
2022-11-18T16:19:10.555Z,8.6
2022-11-18T16:21:08.771Z,8.7
2022-11-18T16:23:08.510Z,8.7
2022-11-18T16:25:08.644Z,8.6
2022-11-18T16:27:07.845Z,8.6
2022-11-18T16:29:10.215Z,8.6
2022-11-18T16:31:17.426Z,8.5
2022-11-18T16:33:07.599Z,8.4
2022-11-18T16:35:07.356Z,8.4
2022-11-18T16:37:07.616Z,8.4
2022-11-18T16:41:15.480Z,8.5
2022-11-18T16:43:05.372Z,8.5
2022-11-18T16:45:05.755Z,8.4
2022-11-18T16:47:12.376Z,8.5
2022-11-18T16:49:05.418Z,8.4
2022-11-18T16:51:18.245Z,8.4
2022-11-18T16:53:03.780Z,8.5
2022-11-18T16:55:03.930Z,8.4
2022-11-18T16:57:03.451Z,8.3
2022-11-18T16:59:10.178Z,8.4
2022-11-18T17:03:02.937Z,8.3
2022-11-18T17:05:01.954Z,8.4
2022-11-18T17:07:02.521Z,8.4
2022-11-18T17:09:01.339Z,8.4
2022-11-18T17:11:06.401Z,8.1
2022-11-18T17:13:00.637Z,8.1
2022-11-18T17:16:59.950Z,8.4
2022-11-18T17:19:07.150Z,8.4
2022-11-18T17:22:59.036Z,8.3
2022-11-18T17:25:04.878Z,8.3
2022-11-18T17:26:58.701Z,8.1
2022-11-18T17:31:04.285Z,8.3
2022-11-18T17:32:57.341Z,8.3
2022-11-18T17:37:01.577Z,8.2
2022-11-18T17:38:58.961Z,8.2
2022-11-18T17:42:55.839Z,8.1
2022-11-18T17:44:55.449Z,8.2
2022-11-18T17:46:55.617Z,8.2
2022-11-18T17:48:55.130Z,8.2
2022-11-18T17:51:02.724Z,8.1
2022-11-18T17:52:54.609Z,8.1
2022-11-18T17:54:54.325Z,8.2
2022-11-18T17:56:54.161Z,8.2
2022-11-18T17:58:53.301Z,8.2
2022-11-18T18:00:52.921Z,8.1
2022-11-18T18:02:52.464Z,8.1
2022-11-18T18:04:52.199Z,8.1
2022-11-18T18:06:52.332Z,8.1
2022-11-18T18:08:55.093Z,8.0
2022-11-18T18:10:51.153Z,8.0
2022-11-18T18:13:01.144Z,8.0
2022-11-18T18:14:50.785Z,8.0
2022-11-18T18:16:50.549Z,8.0
2022-11-18T18:18:50.845Z,8.1
2022-11-18T18:20:50.134Z,8.0
2022-11-18T18:22:49.648Z,8.0
2022-11-18T18:24:49.290Z,7.9
2022-11-18T18:26:48.611Z,7.9
2022-11-18T18:28:48.282Z,7.9
2022-11-18T18:30:57.228Z,8.0
2022-11-18T18:32:52.232Z,7.9
2022-11-18T18:34:47.310Z,7.9
2022-11-18T18:36:47.071Z,8.0
2022-11-18T18:38:47.055Z,7.8
2022-11-18T18:40:46.372Z,7.7
2022-11-18T18:42:46.136Z,7.8
2022-11-18T18:46:45.710Z,7.8
2022-11-18T18:48:45.558Z,7.8
2022-11-18T18:50:45.309Z,7.8
2022-11-18T18:52:45.027Z,7.9
2022-11-18T18:54:44.321Z,7.9
2022-11-18T18:56:44.266Z,7.8
2022-11-18T18:58:43.698Z,7.8
2022-11-18T19:00:43.292Z,7.8
2022-11-18T19:02:42.932Z,7.8
2022-11-18T19:04:44.041Z,7.8
2022-11-18T19:06:59.550Z,7.7
2022-11-18T19:08:42.130Z,7.7
2022-11-18T19:10:41.741Z,7.7
2022-11-18T19:12:42.433Z,7.7
2022-11-18T19:14:41.276Z,7.7
2022-11-18T19:16:42.059Z,7.7
2022-11-18T19:18:40.848Z,7.7
2022-11-18T19:22:40.400Z,7.7
2022-11-18T19:28:38.883Z,7.7
2022-11-18T19:30:38.470Z,7.7
2022-11-18T19:32:39.318Z,7.8
2022-11-18T19:34:37.875Z,7.8
2022-11-18T19:36:37.542Z,7.7
2022-11-18T19:38:37.236Z,7.7
2022-11-18T19:40:36.958Z,7.8
2022-11-18T19:42:36.840Z,7.7
2022-11-18T19:44:36.615Z,7.7
2022-11-18T19:46:36.426Z,7.7
2022-11-18T19:48:36.163Z,7.7
2022-11-18T19:50:35.340Z,7.7
2022-11-18T19:52:35.112Z,7.7
2022-11-18T19:54:34.774Z,7.7
2022-11-18T19:56:34.380Z,7.7
2022-11-18T19:58:36.239Z,7.8
2022-11-18T20:00:34.010Z,7.8
2022-11-18T20:02:33.447Z,7.8
2022-11-18T20:04:33.499Z,7.7
2022-11-18T20:06:34.637Z,7.8
2022-11-18T20:08:33.859Z,7.7
2022-11-18T20:10:32.181Z,7.8
2022-11-18T20:12:32.885Z,7.7
2022-11-18T20:14:31.968Z,7.7
2022-11-18T20:16:32.711Z,7.8
2022-11-18T20:18:31.628Z,7.7
2022-11-18T20:20:31.811Z,7.7
2022-11-18T20:22:30.585Z,7.7
2022-11-18T20:24:29.937Z,7.7
2022-11-18T20:26:31.986Z,7.8
2022-11-18T20:28:29.463Z,7.7
2022-11-18T20:30:29.197Z,7.7
2022-11-18T20:32:28.771Z,7.7
2022-11-18T20:34:28.411Z,7.7
2022-11-18T20:36:30.328Z,7.7
2022-11-18T20:38:27.716Z,7.8
2022-11-18T20:40:27.895Z,7.7
2022-11-18T20:42:37.215Z,7.8
2022-11-18T20:44:27.568Z,7.8
2022-11-18T20:48:26.700Z,7.7
2022-11-18T20:50:25.836Z,7.7
2022-11-18T20:52:25.532Z,7.7
2022-11-18T20:54:25.243Z,7.7
2022-11-18T20:56:26.726Z,7.7
2022-11-18T20:58:24.578Z,7.7
2022-11-18T21:00:24.257Z,7.7
2022-11-18T21:02:23.908Z,7.7
2022-11-18T21:04:23.654Z,7.7
2022-11-18T21:06:26.119Z,7.7
2022-11-18T21:08:23.105Z,7.7
2022-11-18T21:10:22.984Z,7.8
2022-11-18T21:12:22.872Z,7.7
2022-11-18T21:14:24.781Z,7.7
2022-11-18T21:18:21.609Z,7.7
2022-11-18T21:20:31.068Z,7.7
2022-11-18T21:22:20.874Z,7.8
2022-11-18T21:24:23.260Z,7.8
2022-11-18T21:26:20.651Z,7.8
2022-11-18T21:28:19.919Z,7.8
2022-11-18T21:30:19.746Z,7.8
2022-11-18T21:32:19.333Z,7.8
2022-11-18T21:34:19.673Z,7.8
2022-11-18T21:36:20.560Z,7.8
2022-11-18T21:40:18.513Z,7.8
2022-11-18T21:42:17.915Z,7.8
2022-11-18T21:44:17.400Z,7.7
2022-11-18T21:46:17.632Z,7.8
2022-11-18T21:48:16.654Z,7.7
2022-11-18T21:50:16.813Z,7.8
2022-11-18T21:52:16.098Z,7.8
2022-11-18T21:54:17.273Z,7.7
2022-11-18T21:56:19.374Z,7.7
2022-11-18T21:58:15.207Z,7.7
2022-11-18T22:00:15.299Z,7.7
2022-11-18T22:02:14.950Z,7.7
2022-11-18T22:04:23.997Z,7.7
2022-11-18T22:06:14.327Z,7.7
2022-11-18T22:08:13.421Z,7.7
2022-11-18T22:10:13.037Z,7.7
2022-11-18T22:12:12.901Z,7.6
2022-11-18T22:14:12.396Z,7.7
2022-11-18T22:16:14.611Z,7.7
2022-11-18T22:18:11.816Z,7.7
2022-11-18T22:20:11.592Z,7.7
2022-11-18T22:22:11.094Z,7.7
2022-11-18T22:24:10.994Z,7.7
2022-11-18T22:26:12.244Z,7.6
2022-11-18T22:28:10.477Z,7.6
2022-11-18T22:30:10.611Z,7.6
2022-11-18T22:34:10.585Z,7.5
2022-11-18T22:36:11.996Z,7.6
2022-11-18T22:38:08.953Z,7.6
2022-11-18T22:40:09.169Z,7.6
2022-11-18T22:42:17.782Z,7.6
2022-11-18T22:44:08.782Z,7.5
2022-11-18T22:46:07.784Z,7.6
2022-11-18T22:52:06.649Z,7.5
2022-11-18T22:54:37.033Z,7.6
2022-11-18T22:56:08.079Z,7.5
2022-11-18T22:58:05.848Z,7.6
2022-11-18T23:00:06.806Z,7.6
2022-11-18T23:02:05.604Z,7.6
2022-11-18T23:04:04.493Z,7.6
2022-11-18T23:06:04.700Z,7.5
2022-11-18T23:08:03.881Z,7.5
2022-11-18T23:10:04.256Z,7.5
2022-11-18T23:12:13.010Z,7.4
2022-11-18T23:14:04.847Z,7.4
2022-11-18T23:16:03.207Z,7.5
2022-11-18T23:18:04.350Z,7.5
2022-11-18T23:20:01.929Z,7.5
2022-11-18T23:22:01.823Z,7.5
2022-11-18T23:24:02.280Z,7.5
2022-11-18T23:26:04.287Z,7.5
2022-11-18T23:28:00.797Z,7.5
2022-11-18T23:30:00.788Z,7.5
2022-11-18T23:32:00.007Z,7.5
2022-11-18T23:34:00.666Z,7.4
2022-11-18T23:35:59.983Z,7.4
2022-11-18T23:37:59.204Z,7.4
2022-11-18T23:39:58.683Z,7.5
2022-11-18T23:41:58.466Z,7.5
2022-11-18T23:43:58.186Z,7.5
2022-11-18T23:45:58.042Z,7.5
2022-11-18T23:47:57.371Z,7.5
2022-11-18T23:49:57.072Z,7.5
2022-11-18T23:51:57.007Z,7.5
2022-11-18T23:53:57.393Z,7.5
2022-11-18T23:55:57.337Z,7.4
2022-11-18T23:57:56.025Z,7.4
